createdAt,value
2022-12-03T06:58:21.059Z,5.88
2022-12-03T07:00:47.957Z,8.27
2022-12-03T07:03:14.457Z,6.82
2022-12-03T07:05:41.359Z,8.60
2022-12-03T07:08:07.809Z,8.38
2022-12-03T07:10:34.613Z,6.97
2022-12-03T07:13:01.087Z,7.68
2022-12-03T07:15:27.662Z,8.10
2022-12-03T07:17:54.368Z,7.55
2022-12-03T07:20:20.940Z,7.28
2022-12-03T07:22:47.455Z,8.77
2022-12-03T07:25:19.527Z,7.68
2022-12-03T07:27:49.480Z,6.20
2022-12-03T07:30:16.413Z,8.30
2022-12-03T07:32:43.711Z,8.75
2022-12-03T07:35:10.318Z,8.23
2022-12-03T07:37:37.085Z,8.32
2022-12-03T07:40:05.393Z,8.20
2022-12-03T07:42:32.125Z,7.70
2022-12-03T07:44:58.603Z,6.60
2022-12-03T07:47:25.970Z,8.90
2022-12-03T07:49:52.346Z,8.68
2022-12-03T07:52:18.934Z,8.75
2022-12-03T07:54:47.871Z,8.13
2022-12-03T07:57:14.421Z,8.52
2022-12-03T07:59:41.122Z,9.35
2022-12-03T08:02:09.054Z,9.05
2022-12-03T08:04:35.829Z,7.63
2022-12-03T08:07:02.358Z,7.70
2022-12-03T08:09:31.319Z,7.22
2022-12-03T08:12:02.791Z,7.05
2022-12-03T08:14:29.630Z,7.38
2022-12-03T08:16:56.218Z,8.43
2022-12-03T08:19:23.026Z,7.97
2022-12-03T08:21:49.547Z,7.88
2022-12-03T08:24:18.787Z,6.65
2022-12-03T08:26:47.332Z,7.15
2022-12-03T08:29:16.881Z,9.60
2022-12-03T08:31:49.243Z,7.07
2022-12-03T08:34:20.166Z,8.68
2022-12-03T08:36:49.653Z,7.80
2022-12-03T08:39:35.615Z,7.15
2022-12-03T08:42:31.508Z,8.52
2022-12-03T08:45:30.259Z,8.27
2022-12-03T08:47:59.581Z,7.90
2022-12-03T08:50:31.699Z,9.73
2022-12-03T08:53:08.258Z,14.32
2022-12-03T08:55:37.714Z,9.18
2022-12-03T08:58:27.911Z,8.55
2022-12-03T09:01:15.177Z,9.18
2022-12-03T09:03:51.594Z,8.95
2022-12-03T09:06:18.417Z,9.23
2022-12-03T09:08:45.137Z,6.25
2022-12-03T09:11:12.025Z,8.63
2022-12-03T09:13:39.329Z,9.65
2022-12-03T09:16:06.224Z,6.47
2022-12-03T09:18:32.768Z,8.57
2022-12-03T09:20:59.514Z,11.10
2022-12-03T09:23:26.462Z,8.15
2022-12-03T09:25:52.983Z,8.65
2022-12-03T09:28:19.831Z,8.50
2022-12-03T09:30:46.552Z,7.70
2022-12-03T09:33:14.076Z,8.93
2022-12-03T09:35:40.610Z,11.05
2022-12-03T09:38:07.874Z,9.10
2022-12-03T09:40:34.600Z,9.75
2022-12-03T09:43:01.235Z,9.10
2022-12-03T09:45:27.703Z,13.63
2022-12-03T09:47:54.947Z,10.10
2022-12-03T09:50:26.885Z,10.32
2022-12-03T09:52:58.390Z,11.85
2022-12-03T09:55:27.458Z,9.20
2022-12-03T09:57:56.170Z,9.82
2022-12-03T10:00:25.600Z,9.38
2022-12-03T10:02:56.306Z,8.70
2022-12-03T10:05:23.630Z,10.23
2022-12-03T10:07:51.696Z,14.32
2022-12-03T10:10:21.994Z,10.65
2022-12-03T10:12:50.321Z,10.57
2022-12-03T10:15:19.275Z,11.05
2022-12-03T10:17:47.809Z,13.10
2022-12-03T10:20:16.473Z,9.38
2022-12-03T10:22:43.960Z,10.45
2022-12-03T10:25:12.887Z,9.23
2022-12-03T10:27:40.879Z,17.73
2022-12-03T10:30:22.240Z,9.45
2022-12-03T10:32:50.959Z,11.57
2022-12-03T10:35:22.053Z,13.00
2022-12-03T10:37:58.118Z,10.25
2022-12-03T10:40:27.027Z,10.68
2022-12-03T10:43:13.554Z,12.57
2022-12-03T10:45:40.514Z,14.35
2022-12-03T10:48:27.333Z,12.65
2022-12-03T10:51:03.138Z,16.02
2022-12-03T10:53:32.048Z,15.95
2022-12-03T10:56:01.935Z,12.32
2022-12-03T10:58:31.441Z,13.15
2022-12-03T11:01:01.206Z,11.25
2022-12-03T11:03:30.034Z,13.05
2022-12-03T11:05:57.658Z,14.73
2022-12-03T11:08:26.490Z,15.82
2022-12-03T11:11:02.029Z,13.15
2022-12-03T11:13:45.174Z,15.38
2022-12-03T11:16:13.770Z,16.00
2022-12-03T11:18:40.418Z,13.68
2022-12-03T11:21:12.449Z,14.07
2022-12-03T11:23:44.988Z,12.02
2022-12-03T11:26:30.584Z,15.88
2022-12-03T11:28:58.857Z,15.00
2022-12-03T11:31:43.801Z,12.60
2022-12-03T11:34:22.528Z,15.95
2022-12-03T11:37:11.070Z,14.38
2022-12-03T11:39:50.356Z,12.77
2022-12-03T11:42:25.735Z,15.70
2022-12-03T11:45:16.507Z,14.85
2022-12-03T11:47:47.641Z,14.57
2022-12-03T11:50:24.121Z,14.27
2022-12-03T11:52:59.271Z,13.45
2022-12-03T11:55:34.318Z,15.13
2022-12-03T11:58:04.299Z,15.90
2022-12-03T12:00:31.561Z,18.20
2022-12-03T12:02:59.086Z,14.75
2022-12-03T12:05:35.481Z,14.07
2022-12-03T12:08:03.164Z,17.30
2022-12-03T12:13:28.496Z,15.25
2022-12-03T12:15:54.971Z,17.27
2022-12-03T12:21:43.099Z,13.95
2022-12-03T12:24:43.076Z,16.98
2022-12-03T12:27:17.741Z,15.90
2022-12-03T12:29:47.130Z,18.70
2022-12-03T12:32:19.061Z,16.23
2022-12-03T12:34:48.650Z,19.10
2022-12-03T12:37:32.671Z,14.82
2022-12-03T12:40:01.999Z,17.20
2022-12-03T12:42:42.878Z,19.35
2022-12-03T12:45:16.266Z,20.08
2022-12-03T12:47:48.157Z,18.45
2022-12-03T12:50:15.848Z,15.55
2022-12-03T12:52:54.996Z,16.48
2022-12-03T12:55:23.026Z,16.95
2022-12-03T12:57:50.362Z,15.77
2022-12-03T13:03:05.060Z,18.80
2022-12-03T13:05:44.332Z,18.20
2022-12-03T13:08:22.646Z,17.50
2022-12-03T13:10:51.349Z,18.75
2022-12-03T13:13:23.112Z,20.02
2022-12-03T13:15:59.673Z,19.55
2022-12-03T13:18:45.107Z,15.82
2022-12-03T13:21:27.077Z,15.68
2022-12-03T13:23:55.895Z,19.35
2022-12-03T13:26:40.105Z,20.15
2022-12-03T13:29:14.959Z,22.23
2022-12-03T13:31:46.588Z,17.67
2022-12-03T13:34:17.897Z,18.58
2022-12-03T13:36:49.447Z,19.92
2022-12-03T13:39:27.046Z,17.63
2022-12-03T13:42:12.932Z,20.02
2022-12-03T13:44:45.280Z,18.02
2022-12-03T13:47:14.842Z,18.75
2022-12-03T13:49:43.447Z,21.77
2022-12-03T13:52:15.595Z,20.98
2022-12-03T13:54:42.005Z,17.38
2022-12-03T13:57:08.639Z,19.55
2022-12-03T13:59:35.275Z,16.60
2022-12-03T14:02:01.777Z,20.55
2022-12-03T14:04:28.310Z,20.90
2022-12-03T14:06:54.875Z,18.50
2022-12-03T14:09:21.639Z,18.23
2022-12-03T14:12:07.022Z,29.23
2022-12-03T14:17:00.632Z,17.05
2022-12-03T14:19:27.340Z,20.42
2022-12-03T14:21:53.938Z,19.83
2022-12-03T14:24:20.839Z,27.98
2022-12-03T14:26:47.288Z,22.95
2022-12-03T14:29:13.914Z,22.23
2022-12-03T14:31:40.582Z,18.20
2022-12-03T14:34:07.121Z,23.58
2022-12-03T14:36:33.912Z,16.27
2022-12-03T14:39:00.463Z,18.65
2022-12-03T14:41:45.894Z,18.42
2022-12-03T14:44:12.534Z,18.38
2022-12-03T14:46:38.970Z,20.45
2022-12-03T14:49:06.304Z,21.58
2022-12-03T14:51:32.767Z,17.90
2022-12-03T14:53:59.209Z,18.85
2022-12-03T14:56:25.695Z,16.98
2022-12-03T14:58:52.558Z,18.58
2022-12-03T15:01:19.128Z,18.02
2022-12-03T15:03:45.809Z,14.55
2022-12-03T15:06:12.578Z,17.52
2022-12-03T15:08:39.036Z,17.70
2022-12-03T15:11:05.678Z,16.98
2022-12-03T15:13:32.494Z,18.23
2022-12-03T15:15:59.410Z,14.75
2022-12-03T15:18:25.879Z,17.55
2022-12-03T15:20:52.355Z,19.85
2022-12-03T15:23:20.067Z,20.10
2022-12-03T15:25:47.199Z,18.65
2022-12-03T15:28:14.028Z,15.15
2022-12-03T15:30:40.808Z,16.10
2022-12-03T15:33:08.009Z,16.17
2022-12-03T15:38:01.515Z,17.55
2022-12-03T15:40:28.372Z,18.55
2022-12-03T15:42:54.888Z,16.95
2022-12-03T15:45:21.411Z,15.43
2022-12-03T15:47:48.224Z,16.98
2022-12-03T15:50:14.957Z,17.58
2022-12-03T15:52:41.999Z,18.73
2022-12-03T15:55:09.299Z,17.77
2022-12-03T15:57:36.147Z,20.25
2022-12-03T16:00:04.291Z,19.55
2022-12-03T16:02:33.991Z,15.35
2022-12-03T16:05:04.914Z,17.67
2022-12-03T16:07:31.523Z,17.38
2022-12-03T16:09:58.520Z,17.88
2022-12-03T16:12:25.062Z,15.40
2022-12-03T16:14:51.812Z,20.25
2022-12-03T16:17:18.415Z,19.10
2022-12-03T16:19:45.512Z,17.90
2022-12-03T16:22:12.635Z,16.23
2022-12-03T16:27:05.960Z,14.13
2022-12-03T16:29:32.445Z,20.08
2022-12-03T16:31:59.497Z,16.20
2022-12-03T16:34:26.231Z,14.60
2022-12-03T16:36:52.882Z,17.10
2022-12-03T16:39:19.343Z,18.23
2022-12-03T16:41:46.027Z,14.68
2022-12-03T16:44:20.276Z,15.98
2022-12-03T16:46:47.029Z,16.88
2022-12-03T16:49:13.553Z,14.30
2022-12-03T16:51:40.171Z,15.85
2022-12-03T16:54:06.650Z,17.98
2022-12-03T16:56:33.349Z,18.63
2022-12-03T16:58:59.946Z,16.70
2022-12-03T17:01:26.644Z,14.70
2022-12-03T17:03:53.594Z,15.07
2022-12-03T17:06:20.042Z,14.57
2022-12-03T17:08:49.708Z,19.67
2022-12-03T17:11:17.006Z,14.27
2022-12-03T17:13:43.484Z,14.98
2022-12-03T17:16:10.072Z,13.05
2022-12-03T17:18:36.554Z,14.05
2022-12-03T17:21:03.092Z,13.13
2022-12-03T17:23:31.117Z,13.05
2022-12-03T17:25:57.612Z,13.57
2022-12-03T17:28:24.054Z,13.93
2022-12-03T17:30:50.721Z,17.10
2022-12-03T17:33:17.710Z,12.75
2022-12-03T17:35:45.478Z,15.13
2022-12-03T17:38:12.352Z,16.10
2022-12-03T17:40:38.940Z,16.80
2022-12-03T17:43:05.591Z,15.00
2022-12-03T17:45:32.253Z,14.10
2022-12-03T17:47:58.844Z,15.02
2022-12-03T17:50:25.386Z,17.50
2022-12-03T17:52:51.983Z,15.70
2022-12-03T17:55:29.738Z,13.23
2022-12-03T17:58:04.348Z,13.70
2022-12-03T18:00:33.022Z,16.67
2022-12-03T18:02:59.618Z,14.80
2022-12-03T18:05:26.139Z,19.73
2022-12-03T18:07:52.670Z,15.68
2022-12-03T18:10:19.226Z,16.27
2022-12-03T18:12:45.852Z,16.10
2022-12-03T18:15:12.471Z,16.75
2022-12-03T18:17:39.252Z,18.90
2022-12-03T18:20:06.816Z,14.30
2022-12-03T18:22:34.606Z,15.82
2022-12-03T18:25:01.201Z,16.48
2022-12-03T18:27:27.823Z,16.38
2022-12-03T18:29:54.718Z,15.80
2022-12-03T18:32:28.791Z,13.15
2022-12-03T18:35:03.369Z,17.48
2022-12-03T18:37:35.803Z,14.98
2022-12-03T18:40:12.511Z,16.98
2022-12-03T18:42:44.552Z,16.50
2022-12-03T18:45:12.951Z,15.35
2022-12-03T18:47:39.902Z,14.43
2022-12-03T18:50:08.170Z,15.57
2022-12-03T18:52:56.796Z,13.13
2022-12-03T18:55:25.642Z,14.90
2022-12-03T18:57:57.329Z,15.38
2022-12-03T19:00:23.945Z,16.13
2022-12-03T19:03:04.863Z,14.18
2022-12-03T19:05:33.873Z,15.43
2022-12-03T19:08:00.646Z,18.08
2022-12-03T19:10:27.603Z,15.13
2022-12-03T19:13:03.867Z,17.98
2022-12-03T19:15:30.734Z,16.90
2022-12-03T19:17:57.313Z,14.57
2022-12-03T19:20:24.215Z,17.15
2022-12-03T19:22:50.838Z,17.17
2022-12-03T19:25:17.565Z,16.48
2022-12-03T19:27:49.137Z,15.27
2022-12-03T19:30:18.445Z,18.48
2022-12-03T19:32:51.466Z,17.05
2022-12-03T19:35:19.193Z,15.65
2022-12-03T19:37:47.900Z,17.20
2022-12-03T19:47:37.751Z,20.88
2022-12-03T19:50:05.778Z,17.00
2022-12-03T19:52:35.208Z,22.60
2022-12-03T19:55:02.198Z,17.73
2022-12-03T19:57:28.728Z,18.63
2022-12-03T19:59:55.528Z,21.80
2022-12-03T20:02:22.860Z,17.00
2022-12-03T20:04:49.471Z,15.45
2022-12-03T20:07:16.034Z,17.40
2022-12-03T20:09:42.720Z,22.98
2022-12-03T20:12:09.250Z,18.88
2022-12-03T20:14:35.689Z,16.98
2022-12-03T20:17:02.437Z,18.08
2022-12-03T20:19:29.172Z,16.27
2022-12-03T20:22:02.077Z,14.65
2022-12-03T20:24:29.482Z,18.23
2022-12-03T20:26:56.095Z,19.05
2022-12-03T20:29:22.758Z,17.00
2022-12-03T20:31:49.306Z,19.90
2022-12-03T20:34:15.814Z,17.45
2022-12-03T20:36:44.082Z,19.80
2022-12-03T20:39:10.826Z,18.35
2022-12-03T20:41:37.894Z,16.63
2022-12-03T20:44:07.241Z,21.02
2022-12-03T20:46:33.714Z,15.48
2022-12-03T20:49:00.446Z,16.60
2022-12-03T20:51:29.938Z,17.17
2022-12-03T20:53:58.747Z,19.13
2022-12-03T20:56:31.105Z,14.85
2022-12-03T20:59:00.827Z,16.55
2022-12-03T21:01:28.012Z,16.92
2022-12-03T21:03:56.595Z,15.00
2022-12-03T21:06:25.382Z,18.60
2022-12-03T21:08:53.759Z,15.57
2022-12-03T21:11:24.090Z,17.38
2022-12-03T21:13:51.683Z,16.35
2022-12-03T21:16:45.467Z,19.95
2022-12-03T21:19:10.420Z,17.13
2022-12-03T21:21:37.324Z,21.48
2022-12-03T21:24:04.298Z,17.33
2022-12-03T21:26:30.891Z,17.60
2022-12-03T21:28:57.434Z,15.77
2022-12-03T21:31:26.449Z,15.88
2022-12-03T21:33:54.210Z,19.50
2022-12-03T21:36:20.779Z,19.05
2022-12-03T21:38:48.178Z,18.23
2022-12-03T21:41:14.981Z,16.88
2022-12-03T21:43:42.238Z,17.42
2022-12-03T21:48:56.876Z,15.85
2022-12-03T21:51:23.517Z,15.55
2022-12-03T21:53:50.785Z,15.57
2022-12-03T21:56:18.997Z,17.52
2022-12-03T21:58:46.631Z,18.48
2022-12-03T22:01:16.663Z,17.45
2022-12-03T22:03:43.462Z,19.35
2022-12-03T22:06:10.791Z,20.50
2022-12-03T22:08:38.283Z,15.88
2022-12-03T22:13:32.343Z,16.23
2022-12-03T22:15:59.058Z,20.95
2022-12-03T22:18:25.932Z,17.90
2022-12-03T22:20:52.402Z,15.63
2022-12-03T22:23:19.113Z,18.10
2022-12-03T22:25:45.508Z,17.98
2022-12-03T22:28:11.823Z,15.32
2022-12-03T22:30:41.508Z,20.88
2022-12-03T22:33:08.565Z,19.17
2022-12-03T22:35:34.989Z,16.60
2022-12-03T22:38:01.598Z,16.95
2022-12-03T22:40:28.181Z,17.90
2022-12-03T22:42:54.801Z,19.20
2022-12-03T22:45:21.237Z,19.38
2022-12-03T22:47:48.136Z,19.15
2022-12-03T22:50:14.796Z,17.48
2022-12-03T22:52:41.615Z,18.33
2022-12-03T22:55:08.731Z,16.80
2022-12-03T22:57:35.351Z,18.27
2022-12-03T23:02:30.541Z,17.13
2022-12-03T23:04:58.017Z,16.52
2022-12-03T23:07:24.646Z,15.93
2022-12-03T23:09:51.207Z,17.02
2022-12-03T23:12:17.929Z,15.00
2022-12-03T23:14:44.503Z,15.75
2022-12-03T23:17:11.249Z,14.30
2022-12-03T23:19:37.795Z,18.35
2022-12-03T23:22:04.310Z,15.88
2022-12-03T23:24:31.131Z,16.02
2022-12-03T23:26:57.545Z,16.65
2022-12-03T23:29:24.168Z,14.93
2022-12-03T23:31:50.670Z,16.35
2022-12-03T23:34:17.466Z,14.20
2022-12-03T23:39:10.969Z,15.65
2022-12-03T23:41:37.760Z,15.68
2022-12-03T23:44:04.453Z,15.48
2022-12-03T23:46:31.042Z,18.08
2022-12-03T23:48:58.910Z,12.63
2022-12-03T23:51:26.290Z,13.48
2022-12-03T23:53:54.451Z,13.20
2022-12-03T23:56:24.067Z,12.90
2022-12-03T23:58:51.302Z,13.57
